Turney, Missouri
Current Conditions -  °F | °C
As of 10:35 AM on Sunday 21 Dec 2014 (Local Time) from KGPH Reporting Station
Overcast Overcast  
Wind Chill: 35°   Ceiling: 1000
Heat Index: 41°   Visibility: 10mi
Dew Point: 41°   Wind: 9mph
Humidity: 100%   Direction: 180°S
Pressure: 30.01"   Gusts: NA
Location:  39.63°N, 94.32°W
Report Text: KGPH 211635Z AUTO 18008KT 10SM OVC010 05/05 A3001 RMK AO2
Loading
Personal Weather Stations






























Interactive Weather Map New forecast layout! Learn more

10-Day Weather Forecast

Advertisements
Track Severe Weather on mobile